Time;durP1;ratioP1;P1;durP2;ratioP2;P2;SDS_P1;SDS_P2;PMS_P1;PMS_P2;Temp;Humidity;BMP_temperature;BMP_pressure;BME280_temperature;BME280_humidity;BME280_pressure;Samples;Min_cycle;Max_cycle;Signal;HPM_P1;HPM_P2
2023/04/29 00:00:47;;;;;;;1.15;0.80;;;13.20;99.90;;;;;;5053303;28;20063;-43
2023/04/29 00:03:12;;;;;;;1.77;0.90;;;13.30;99.90;;;;;;5052896;28;20402;-44
2023/04/29 00:05:38;;;;;;;1.15;0.77;;;13.30;99.90;;;;;;5052860;28;20021;-43
2023/04/29 00:08:04;;;;;;;2.78;1.02;;;13.20;99.90;;;;;;5052775;28;20021;-44
2023/04/29 00:10:30;;;;;;;0.82;0.65;;;13.30;99.90;;;;;;5053050;28;20021;-41
2023/04/29 00:12:55;;;;;;;2.30;1.20;;;13.30;99.90;;;;;;5051623;28;20434;-40
2023/04/29 00:15:21;;;;;;;3.13;1.00;;;13.30;99.90;;;;;;5052832;28;20380;-43
2023/04/29 00:17:47;;;;;;;2.50;1.00;;;13.20;99.90;;;;;;5052145;28;20078;-39
2023/04/29 00:20:12;;;;;;;1.00;0.65;;;13.20;99.90;;;;;;5052719;28;20025;-40
2023/04/29 00:22:38;;;;;;;1.67;1.13;;;13.30;99.90;;;;;;5053222;28;20028;-44
2023/04/29 00:25:05;;;;;;;1.55;1.00;;;13.20;99.90;;;;;;5052653;28;20025;-43
2023/04/29 00:27:32;;;;;;;1.77;0.80;;;13.20;99.90;;;;;;5052125;28;20017;-41
2023/04/29 00:29:57;;;;;;;2.55;0.90;;;13.30;99.90;;;;;;5052733;28;20024;-43
2023/04/29 00:32:23;;;;;;;0.85;0.80;;;13.30;99.90;;;;;;5052628;28;20468;-45
2023/04/29 00:34:49;;;;;;;1.35;0.98;;;13.30;99.90;;;;;;5052589;28;20108;-39
2023/04/29 00:37:15;;;;;;;2.15;1.02;;;13.20;99.90;;;;;;5052016;28;20029;-43
2023/04/29 00:39:41;;;;;;;1.08;0.80;;;13.30;99.90;;;;;;5052516;28;20340;-43
2023/04/29 00:42:07;;;;;;;0.85;0.80;;;13.20;99.90;;;;;;5052470;28;20047;-43
2023/04/29 00:44:32;;;;;;;1.05;0.80;;;13.20;99.90;;;;;;5052262;28;20159;-46
2023/04/29 00:46:59;;;;;;;2.03;1.17;;;13.20;99.90;;;;;;5051819;28;20099;-44
2023/04/29 00:49:26;;;;;;;1.73;1.05;;;13.20;99.90;;;;;;5052296;28;20025;-42
2023/04/29 00:51:53;;;;;;;1.00;0.60;;;13.20;99.90;;;;;;5052462;28;20491;-44
2023/04/29 00:54:19;;;;;;;2.50;0.77;;;13.20;99.90;;;;;;5052277;28;20032;-44
2023/04/29 00:56:46;;;;;;;1.05;0.70;;;13.30;99.90;;;;;;5052052;28;20028;-46
2023/04/29 00:59:14;;;;;;;1.42;1.00;;;13.30;99.90;;;;;;5052320;28;20036;-44
2023/04/29 01:01:40;;;;;;;1.50;0.80;;;13.30;99.90;;;;;;5052149;28;20032;-45
2023/04/29 01:04:06;;;;;;;1.63;0.90;;;13.20;99.90;;;;;;5051932;28;20052;-44
2023/04/29 01:06:50;;;;;;;0.98;0.88;;;13.20;99.90;;;;;;5051511;28;20025;-44
2023/04/29 01:09:35;;;;;;;1.55;1.00;;;13.20;99.90;;;;;;5051834;28;20021;-44
2023/04/29 01:12:14;;;;;;;0.93;0.80;;;13.30;99.90;;;;;;5051257;28;20025;-43
2023/04/29 01:14:46;;;;;;;1.10;0.80;;;13.30;99.90;;;;;;5051836;28;20025;-44
2023/04/29 01:17:18;;;;;;;2.72;0.90;;;13.30;99.90;;;;;;5051269;28;20109;-45
2023/04/29 01:19:47;;;;;;;2.20;0.90;;;13.20;99.90;;;;;;5051696;28;20032;-42
2023/04/29 01:22:13;;;;;;;1.25;0.80;;;13.20;99.90;;;;;;5051612;28;20013;-43
2023/04/29 01:24:39;;;;;;;1.42;1.00;;;13.20;99.90;;;;;;5050095;28;20029;-45
2023/04/29 01:27:24;;;;;;;1.45;1.00;;;13.20;99.90;;;;;;5050950;28;20025;-44
2023/04/29 01:29:49;;;;;;;1.75;0.73;;;13.20;99.90;;;;;;5052220;28;20052;-41
2023/04/29 01:32:40;;;;;;;1.17;0.80;;;13.20;99.90;;;;;;5051769;28;20049;-44
2023/04/29 01:35:10;;;;;;;1.08;0.80;;;13.20;99.90;;;;;;5051557;28;20451;-41
2023/04/29 01:38:17;;;;;;;2.35;0.70;;;13.20;99.90;;;;;;5050952;28;20025;-43
2023/04/29 01:40:58;;;;;;;0.80;0.70;;;13.20;99.90;;;;;;5051576;28;20037;-43
2023/04/29 01:43:29;;;;;;;1.05;0.80;;;13.10;99.90;;;;;;5051430;28;20021;-43
2023/04/29 01:45:56;;;;;;;1.73;0.95;;;13.20;99.90;;;;;;5050885;28;20029;-44
2023/04/29 01:48:23;;;;;;;2.13;1.08;;;13.10;99.90;;;;;;5051454;28;20071;-45
2023/04/29 01:50:49;;;;;;;1.38;0.90;;;13.10;99.90;;;;;;5051321;28;20025;-44
2023/04/29 01:53:14;;;;;;;1.30;0.80;;;13.10;99.90;;;;;;5051370;28;20021;-44
2023/04/29 01:55:40;;;;;;;2.00;0.80;;;13.10;99.90;;;;;;5051282;28;20558;-44
2023/04/29 01:58:05;;;;;;;2.53;0.93;;;13.10;99.90;;;;;;5050952;28;20478;-44
2023/04/29 02:00:31;;;;;;;1.15;0.82;;;13.20;99.90;;;;;;5051297;28;20033;-44
2023/04/29 02:02:57;;;;;;;2.03;1.00;;;13.10;99.90;;;;;;5050816;28;20090;-41
2023/04/29 02:05:22;;;;;;;1.13;0.93;;;13.10;99.90;;;;;;5051196;28;20025;-43
2023/04/29 02:07:48;;;;;;;2.30;0.93;;;13.10;99.90;;;;;;5050435;28;20018;-45
2023/04/29 02:10:14;;;;;;;1.70;0.70;;;13.10;99.90;;;;;;5051116;28;20112;-43
2023/04/29 02:12:39;;;;;;;2.25;0.80;;;13.10;99.90;;;;;;5050949;28;20109;-41
2023/04/29 02:15:06;;;;;;;1.90;0.85;;;13.10;99.90;;;;;;5050908;28;20036;-43
2023/04/29 02:17:33;;;;;;;2.70;1.02;;;13.10;99.90;;;;;;5050390;28;20079;-44
2023/04/29 02:19:58;;;;;;;3.35;0.90;;;13.10;99.90;;;;;;5050876;28;20557;-44
2023/04/29 02:22:24;;;;;;;1.08;0.77;;;13.10;99.90;;;;;;5053310;28;20072;-44
2023/04/29 02:24:50;;;;;;;1.15;0.65;;;13.10;99.90;;;;;;5054932;28;20029;-42
2023/04/29 02:27:16;;;;;;;1.00;0.85;;;13.10;99.90;;;;;;5054643;28;20025;-44
2023/04/29 02:29:42;;;;;;;0.80;0.80;;;13.10;99.90;;;;;;5054859;28;20021;-44
2023/04/29 02:32:08;;;;;;;0.98;0.80;;;13.10;99.90;;;;;;5055253;28;20024;-44
2023/04/29 02:34:33;;;;;;;2.22;0.73;;;13.10;99.90;;;;;;5054907;28;20025;-42
2023/04/29 02:36:59;;;;;;;2.25;0.80;;;13.10;99.90;;;;;;5054563;28;20055;-44
2023/04/29 02:39:24;;;;;;;1.38;0.80;;;13.00;99.90;;;;;;5055067;28;20032;-44
2023/04/29 02:41:55;;;;;;;3.55;0.90;;;13.10;99.90;;;;;;5055051;28;20036;-43
2023/04/29 02:44:20;;;;;;;2.75;0.80;;;13.10;99.90;;;;;;5054349;28;20430;-45
2023/04/29 02:46:46;;;;;;;2.30;0.70;;;13.00;99.90;;;;;;5054135;28;20056;-43
2023/04/29 02:49:12;;;;;;;1.25;0.80;;;13.00;99.90;;;;;;5054809;28;20024;-40
2023/04/29 02:51:38;;;;;;;1.13;0.80;;;13.00;99.90;;;;;;5054773;28;20028;-44
2023/04/29 02:54:04;;;;;;;1.38;0.80;;;13.00;99.90;;;;;;5054650;28;20018;-43
2023/04/29 02:56:30;;;;;;;3.17;0.98;;;13.10;99.90;;;;;;5053946;28;20569;-43
2023/04/29 02:58:55;;;;;;;2.20;1.10;;;13.00;99.90;;;;;;5054353;28;20045;-44
2023/04/29 03:01:23;;;;;;;1.92;1.10;;;13.00;99.90;;;;;;5054614;28;20029;-45
2023/04/29 03:03:48;;;;;;;2.63;1.20;;;13.00;99.90;;;;;;5054344;28;20033;-46
2023/04/29 03:06:14;;;;;;;1.60;1.10;;;13.00;99.90;;;;;;5053815;28;20364;-41
2023/04/29 03:08:40;;;;;;;1.33;1.10;;;13.00;99.90;;;;;;5054711;28;20533;-45
2023/04/29 03:11:06;;;;;;;2.15;1.10;;;13.00;99.90;;;;;;5052860;28;20029;-44
2023/04/29 03:13:31;;;;;;;2.15;1.23;;;13.00;99.90;;;;;;5054120;28;20124;-44
2023/04/29 03:15:59;;;;;;;2.38;1.10;;;13.00;99.90;;;;;;5053795;28;20469;-41
2023/04/29 03:18:25;;;;;;;0.90;0.80;;;13.00;99.90;;;;;;5054763;28;20033;-43
2023/04/29 03:20:50;;;;;;;1.80;1.02;;;13.00;99.90;;;;;;5054240;28;20386;-42
2023/04/29 03:23:16;;;;;;;2.83;1.20;;;13.00;99.90;;;;;;5053995;28;20029;-45
2023/04/29 03:25:41;;;;;;;1.20;1.10;;;13.00;99.90;;;;;;5053676;28;20476;-44
2023/04/29 03:28:07;;;;;;;1.95;1.25;;;13.00;99.90;;;;;;5053547;28;20024;-42
2023/04/29 03:30:33;;;;;;;1.73;1.23;;;13.00;99.90;;;;;;5054193;28;20017;-43
2023/04/29 03:32:58;;;;;;;1.60;1.10;;;13.00;99.90;;;;;;5053106;28;20032;-43
2023/04/29 03:35:24;;;;;;;1.20;1.00;;;13.00;99.90;;;;;;5053909;28;20032;-44
2023/04/29 03:37:50;;;;;;;2.53;1.17;;;13.00;99.90;;;;;;5053436;28;20064;-41
2023/04/29 03:40:15;;;;;;;1.00;0.90;;;13.00;99.90;;;;;;5054169;28;20025;-44
2023/04/29 03:42:41;;;;;;;1.65;1.00;;;13.00;99.90;;;;;;5052772;28;20063;-43
2023/04/29 03:45:07;;;;;;;1.17;0.77;;;13.00;99.90;;;;;;5053785;28;20033;-43
2023/04/29 03:47:33;;;;;;;1.02;0.88;;;13.00;99.90;;;;;;5053479;28;20112;-43
2023/04/29 03:49:58;;;;;;;1.17;0.90;;;13.00;99.90;;;;;;5053464;28;20401;-44
2023/04/29 03:52:24;;;;;;;1.10;0.80;;;12.90;99.90;;;;;;5053650;28;20041;-45
2023/04/29 03:54:50;;;;;;;1.40;1.02;;;12.90;99.90;;;;;;5053300;28;20032;-44
2023/04/29 03:57:15;;;;;;;1.38;1.05;;;13.00;99.90;;;;;;5052811;28;20021;-43
2023/04/29 03:59:41;;;;;;;1.60;1.20;;;12.90;99.90;;;;;;5053480;28;20106;-45
2023/04/29 04:02:07;;;;;;;1.77;0.90;;;12.90;99.90;;;;;;5053208;28;20152;-45
2023/04/29 04:04:33;;;;;;;1.40;1.00;;;12.90;99.90;;;;;;5053293;28;20033;-38
2023/04/29 04:06:59;;;;;;;1.50;1.00;;;12.90;99.90;;;;;;5052602;28;20542;-40
2023/04/29 04:09:25;;;;;;;3.17;1.02;;;12.90;99.90;;;;;;5052947;28;20043;-44
2023/04/29 04:11:50;;;;;;;1.10;0.80;;;13.00;99.90;;;;;;5053223;28;20029;-45
2023/04/29 04:14:17;;;;;;;5.03;1.00;;;13.00;99.90;;;;;;5052967;28;20021;-43
2023/04/29 04:16:42;;;;;;;1.45;1.00;;;13.00;99.90;;;;;;5052555;28;20021;-43
2023/04/29 04:19:08;;;;;;;3.78;0.95;;;12.90;99.90;;;;;;5053271;28;20028;-42
2023/04/29 04:21:34;;;;;;;1.13;1.00;;;12.90;99.90;;;;;;5053505;28;20430;-45
2023/04/29 04:24:00;;;;;;;1.00;0.80;;;12.90;99.90;;;;;;5053054;28;20372;-41
2023/04/29 04:26:25;;;;;;;2.25;1.20;;;12.90;99.90;;;;;;5052528;28;20364;-41
2023/04/29 04:28:51;;;;;;;2.85;1.10;;;12.90;99.90;;;;;;5052655;28;20086;-40
2023/04/29 04:31:17;;;;;;;0.80;0.80;;;12.90;99.90;;;;;;5052769;28;20476;-43
2023/04/29 04:33:42;;;;;;;1.02;0.90;;;12.90;99.90;;;;;;5053495;28;20112;-43
2023/04/29 04:36:08;;;;;;;1.50;1.20;;;12.90;99.90;;;;;;5052904;28;20029;-43
2023/04/29 04:38:34;;;;;;;2.78;0.90;;;12.90;99.90;;;;;;5053453;28;20063;-41
2023/04/29 04:41:00;;;;;;;1.48;1.10;;;12.90;99.90;;;;;;5052759;28;20104;-44
2023/04/29 04:43:25;;;;;;;1.33;0.90;;;12.90;99.90;;;;;;5053209;28;20021;-43
2023/04/29 04:45:51;;;;;;;2.78;1.02;;;12.80;99.90;;;;;;5051475;28;20070;-37
2023/04/29 04:48:17;;;;;;;1.40;1.00;;;12.80;99.90;;;;;;5052770;28;20025;-40
2023/04/29 04:50:43;;;;;;;1.52;1.10;;;12.80;99.90;;;;;;5053198;28;20483;-44
2023/04/29 04:53:08;;;;;;;1.85;1.08;;;12.80;99.90;;;;;;5053220;28;20021;-40
2023/04/29 04:55:34;;;;;;;4.35;1.30;;;12.80;99.90;;;;;;5052312;28;20021;-45
2023/04/29 04:58:00;;;;;;;2.28;1.10;;;12.80;99.90;;;;;;5051554;28;20033;-43
2023/04/29 05:00:25;;;;;;;1.30;1.10;;;12.80;99.90;;;;;;5052238;28;20111;-43
2023/04/29 05:02:51;;;;;;;1.48;1.00;;;12.80;99.90;;;;;;5052543;28;20033;-42
2023/04/29 05:05:17;;;;;;;1.80;1.10;;;12.80;99.90;;;;;;5052979;28;20067;-44
2023/04/29 05:07:42;;;;;;;1.30;1.17;;;12.80;99.90;;;;;;5052195;28;20021;-43
2023/04/29 05:10:09;;;;;;;1.83;1.20;;;12.80;99.90;;;;;;5052645;28;20027;-42
2023/04/29 05:12:35;;;;;;;2.00;1.20;;;12.80;99.90;;;;;;5051741;28;20024;-43
2023/04/29 05:15:01;;;;;;;3.67;1.23;;;12.80;99.90;;;;;;5052133;28;20017;-44
2023/04/29 05:17:27;;;;;;;1.38;1.20;;;12.80;99.90;;;;;;5051491;28;20048;-43
2023/04/29 05:19:53;;;;;;;1.83;1.13;;;12.80;99.90;;;;;;5052007;28;20134;-44
2023/04/29 05:22:18;;;;;;;2.75;1.30;;;12.80;99.90;;;;;;5052067;28;20033;-43
2023/04/29 05:24:44;;;;;;;2.13;1.02;;;12.80;99.90;;;;;;5052242;28;20029;-45
2023/04/29 05:27:09;;;;;;;1.80;1.23;;;12.80;99.90;;;;;;5051406;28;20033;-43
2023/04/29 05:29:35;;;;;;;3.28;1.27;;;12.80;99.90;;;;;;5051503;28;20115;-44
2023/04/29 05:32:01;;;;;;;2.42;1.20;;;12.80;99.90;;;;;;5051631;28;20025;-45
2023/04/29 05:34:27;;;;;;;3.00;1.20;;;12.80;99.90;;;;;;5050962;28;20104;-45
2023/04/29 05:36:52;;;;;;;2.58;1.50;;;12.80;99.90;;;;;;5050868;28;20518;-43
2023/04/29 05:39:18;;;;;;;1.50;1.23;;;12.80;99.90;;;;;;5051326;28;20021;-45
2023/04/29 05:41:44;;;;;;;1.90;1.33;;;12.80;99.90;;;;;;5051828;28;20475;-43
2023/04/29 05:44:10;;;;;;;1.98;1.30;;;12.80;99.90;;;;;;5050725;28;20057;-40
2023/04/29 05:46:36;;;;;;;3.25;1.23;;;12.80;99.90;;;;;;5050531;28;20028;-44
2023/04/29 05:49:01;;;;;;;1.30;1.10;;;12.80;99.90;;;;;;5051371;28;20032;-41
2023/04/29 05:51:27;;;;;;;2.20;1.42;;;12.80;99.90;;;;;;5049824;28;20036;-36
2023/04/29 05:53:58;;;;;;;4.18;1.40;;;12.80;99.90;;;;;;5051352;28;20040;-41
2023/04/29 05:56:23;;;;;;;2.97;1.60;;;12.80;99.90;;;;;;5049929;28;20025;-41
2023/04/29 05:58:49;;;;;;;3.80;1.60;;;12.90;99.90;;;;;;5052212;28;20040;-44
2023/04/29 06:01:16;;;;;;;3.75;1.52;;;12.90;99.90;;;;;;5052409;28;20032;-45
2023/04/29 06:03:42;;;;;;;7.18;1.70;;;12.80;99.90;;;;;;5051720;28;20111;-45
2023/04/29 06:06:08;;;;;;;3.17;1.70;;;12.80;99.90;;;;;;5051705;28;20111;-45
2023/04/29 06:08:33;;;;;;;3.13;1.80;;;12.90;99.90;;;;;;5051315;28;20066;-42
2023/04/29 06:11:00;;;;;;;4.22;1.92;;;12.80;99.90;;;;;;5051219;28;20044;-40
2023/04/29 06:13:26;;;;;;;4.35;1.38;;;12.80;99.90;;;;;;5051812;28;20021;-41
2023/04/29 06:15:52;;;;;;;2.17;1.73;;;12.80;99.90;;;;;;5052424;28;20505;-37
2023/04/29 06:18:17;;;;;;;4.13;1.35;;;12.90;99.90;;;;;;5051661;28;20029;-41
2023/04/29 06:20:43;;;;;;;3.15;1.23;;;12.80;99.90;;;;;;5050779;28;20434;-44
2023/04/29 06:23:09;;;;;;;2.60;1.25;;;12.80;99.90;;;;;;5051968;28;20483;-43
2023/04/29 06:25:34;;;;;;;2.97;1.30;;;12.90;99.90;;;;;;5051557;28;20032;-44
2023/04/29 06:28:00;;;;;;;2.00;1.30;;;12.90;99.90;;;;;;5051123;28;20116;-41
2023/04/29 06:30:26;;;;;;;2.53;1.50;;;12.90;99.90;;;;;;5051714;28;20033;-40
2023/04/29 06:32:52;;;;;;;1.88;1.30;;;12.90;99.90;;;;;;5051159;28;20021;-43
2023/04/29 06:35:18;;;;;;;3.45;1.30;;;12.90;99.90;;;;;;5050735;28;20021;-44
2023/04/29 06:37:44;;;;;;;2.88;1.25;;;12.90;99.90;;;;;;5051709;28;20115;-42
2023/04/29 06:40:11;;;;;;;1.83;1.10;;;12.90;99.90;;;;;;5051262;28;20029;-45
2023/04/29 06:42:37;;;;;;;1.95;1.13;;;12.90;99.90;;;;;;5050876;28;20100;-45
2023/04/29 06:45:03;;;;;;;2.63;1.25;;;12.90;99.90;;;;;;5051716;28;20104;-45
2023/04/29 06:47:29;;;;;;;1.10;1.00;;;12.90;99.90;;;;;;5050893;28;20054;-41
2023/04/29 06:49:55;;;;;;;1.42;0.90;;;12.90;99.90;;;;;;5051693;28;20032;-45
2023/04/29 06:52:21;;;;;;;4.13;1.45;;;12.90;99.90;;;;;;5051632;28;20025;-43
2023/04/29 06:54:46;;;;;;;1.60;1.10;;;12.90;99.90;;;;;;5050417;28;20025;-44
2023/04/29 06:57:12;;;;;;;2.10;1.00;;;12.90;99.90;;;;;;5050601;28;20153;-43
2023/04/29 06:59:38;;;;;;;2.97;1.20;;;12.90;99.90;;;;;;5052818;28;20029;-43
2023/04/29 07:02:03;;;;;;;1.35;0.90;;;12.90;99.90;;;;;;5051109;28;20383;-45
2023/04/29 07:04:29;;;;;;;3.80;1.38;;;12.90;99.90;;;;;;5052060;28;20041;-45
2023/04/29 07:06:55;;;;;;;2.15;1.25;;;12.90;99.90;;;;;;5051534;28;20031;-44
2023/04/29 07:09:22;;;;;;;2.97;1.20;;;12.90;99.90;;;;;;5054944;28;20029;-44
2023/04/29 07:11:48;;;;;;;1.17;1.08;;;12.90;99.90;;;;;;5055350;28;20047;-44
2023/04/29 07:14:13;;;;;;;2.65;1.00;;;12.90;99.90;;;;;;5055387;28;20378;-44
2023/04/29 07:16:39;;;;;;;1.17;1.08;;;12.90;99.90;;;;;;5053736;28;20037;-44
2023/04/29 07:19:05;;;;;;;1.75;1.02;;;12.90;99.90;;;;;;5055273;28;20033;-46
2023/04/29 07:21:31;;;;;;;1.25;1.00;;;12.90;99.90;;;;;;5054786;28;20718;-40
2023/04/29 07:23:59;;;;;;;3.10;1.00;;;13.00;99.90;;;;;;5054877;28;20029;-43
2023/04/29 07:26:25;;;;;;;1.30;1.00;;;13.00;99.90;;;;;;5054305;28;20107;-44
2023/04/29 07:28:51;;;;;;;2.65;1.20;;;13.00;99.90;;;;;;5054938;28;20094;-45
2023/04/29 07:31:16;;;;;;;1.45;1.20;;;13.00;99.90;;;;;;5054273;28;20056;-44
2023/04/29 07:33:44;;;;;;;1.55;1.10;;;13.00;99.90;;;;;;5055169;28;20112;-39
2023/04/29 07:36:10;;;;;;;1.88;1.23;;;13.10;99.90;;;;;;5053379;28;20437;-44
2023/04/29 07:38:36;;;;;;;1.58;1.17;;;13.00;99.90;;;;;;5054709;28;20032;-43
2023/04/29 07:41:03;;;;;;;1.70;1.00;;;13.00;99.90;;;;;;5053964;28;20029;-44
2023/04/29 07:43:29;;;;;;;6.50;1.13;;;13.00;99.90;;;;;;5054116;28;20051;-44
2023/04/29 07:45:54;;;;;;;2.03;1.25;;;13.10;99.90;;;;;;5053478;28;20086;-44
2023/04/29 07:48:20;;;;;;;1.73;1.10;;;13.10;99.90;;;;;;5054014;28;20044;-41
2023/04/29 07:50:46;;;;;;;1.60;1.17;;;13.10;99.90;;;;;;5054030;28;20017;-46
2023/04/29 07:53:11;;;;;;;1.55;1.10;;;13.10;99.90;;;;;;5054842;28;20025;-43
2023/04/29 07:55:37;;;;;;;1.80;1.20;;;13.10;99.90;;;;;;5053788;28;20111;-44
2023/04/29 07:58:03;;;;;;;2.35;1.45;;;13.10;99.90;;;;;;5054270;28;20025;-44
2023/04/29 08:00:29;;;;;;;1.10;1.00;;;13.10;99.90;;;;;;5053515;28;20077;-43
2023/04/29 08:02:55;;;;;;;1.75;1.13;;;13.10;99.90;;;;;;5053918;28;20499;-37
2023/04/29 08:05:21;;;;;;;2.53;1.38;;;13.20;99.90;;;;;;5054374;28;20029;-44
2023/04/29 08:07:47;;;;;;;1.17;0.98;;;13.20;99.90;;;;;;5052144;28;20024;-42
2023/04/29 08:10:14;;;;;;;1.30;1.10;;;13.20;99.90;;;;;;5054650;28;20021;-44
2023/04/29 08:12:40;;;;;;;1.10;1.00;;;13.20;99.90;;;;;;5054479;28;20048;-45
2023/04/29 08:15:06;;;;;;;1.73;1.20;;;13.20;99.90;;;;;;5053352;28;20503;-41
2023/04/29 08:17:32;;;;;;;1.15;1.00;;;13.20;99.90;;;;;;5052833;28;20025;-43
2023/04/29 08:19:57;;;;;;;1.30;1.05;;;13.20;99.90;;;;;;5052339;28;20540;-43
2023/04/29 08:22:23;;;;;;;2.00;1.20;;;13.20;99.90;;;;;;5054005;28;20025;-44
2023/04/29 08:24:48;;;;;;;1.13;1.00;;;13.30;99.90;;;;;;5052986;28;20025;-44
2023/04/29 08:27:14;;;;;;;1.30;1.10;;;13.30;99.90;;;;;;5052243;28;20028;-43
2023/04/29 08:29:41;;;;;;;1.30;1.00;;;13.20;99.90;;;;;;5053387;28;20029;-44
2023/04/29 08:32:06;;;;;;;1.27;1.00;;;13.20;99.90;;;;;;5052081;28;20540;-45
2023/04/29 08:34:32;;;;;;;1.20;1.00;;;13.30;99.90;;;;;;5052871;28;20506;-45
2023/04/29 08:36:58;;;;;;;1.25;1.10;;;13.30;99.90;;;;;;5052711;28;20071;-45
2023/04/29 08:39:24;;;;;;;1.00;0.80;;;13.30;99.90;;;;;;5052769;28;20088;-44
2023/04/29 08:41:51;;;;;;;1.80;1.10;;;13.30;99.90;;;;;;5053383;28;20048;-44
2023/04/29 08:44:20;;;;;;;1.70;0.95;;;13.30;99.90;;;;;;5052696;28;20087;-43
2023/04/29 08:46:47;;;;;;;1.60;1.08;;;13.30;99.90;;;;;;5051988;28;20044;-44
2023/04/29 08:49:13;;;;;;;1.90;1.10;;;13.30;99.90;;;;;;5053019;28;20118;-44
2023/04/29 08:51:38;;;;;;;1.65;1.10;;;13.30;99.90;;;;;;5053132;28;20100;-43
2023/04/29 08:54:06;;;;;;;1.13;1.00;;;13.30;99.90;;;;;;5053584;28;20024;-44
2023/04/29 08:56:32;;;;;;;1.95;1.00;;;13.30;99.90;;;;;;5052948;28;20028;-43
2023/04/29 08:59:00;;;;;;;0.82;0.80;;;13.30;99.90;;;;;;5054093;28;20123;-45
2023/04/29 09:01:29;;;;;;;1.00;0.82;;;13.30;99.90;;;;;;5052427;28;20035;-40
2023/04/29 09:04:31;;;;;;;0.82;0.82;;;13.30;99.90;;;;;;5052861;28;20048;-45
2023/04/29 09:06:58;;;;;;;1.20;0.90;;;13.30;99.90;;;;;;5052009;28;20548;-45
2023/04/29 09:09:24;;;;;;;2.05;1.25;;;13.40;99.90;;;;;;5051857;28;20032;-45
2023/04/29 09:11:51;;;;;;;1.95;1.05;;;13.30;99.90;;;;;;5050498;28;20036;-44
2023/04/29 09:14:18;;;;;;;1.27;1.05;;;13.40;99.90;;;;;;5052661;28;20017;-46
2023/04/29 09:16:46;;;;;;;0.98;0.88;;;13.30;99.90;;;;;;5051314;28;20529;-44
2023/04/29 09:19:29;;;;;;;1.00;0.88;;;13.40;99.90;;;;;;5052801;28;20040;-44
2023/04/29 09:21:55;;;;;;;1.63;0.82;;;13.30;99.90;;;;;;5051761;28;20501;-44
2023/04/29 09:24:26;;;;;;;1.02;0.90;;;13.40;99.90;;;;;;5052303;28;20033;-44
2023/04/29 09:26:52;;;;;;;2.00;0.90;;;13.40;99.90;;;;;;5051566;28;20017;-44
2023/04/29 09:29:17;;;;;;;1.13;0.73;;;13.30;99.90;;;;;;5052598;28;20246;-41
2023/04/29 09:31:44;;;;;;;1.35;0.85;;;13.40;99.90;;;;;;5052139;28;20033;-44
2023/04/29 09:34:11;;;;;;;1.25;1.00;;;13.40;99.90;;;;;;5051807;28;20047;-44
2023/04/29 09:36:55;;;;;;;0.98;0.88;;;13.40;99.90;;;;;;5051121;28;20017;-44
2023/04/29 09:39:22;;;;;;;1.87;1.10;;;13.40;99.90;;;;;;5052470;28;20108;-42
2023/04/29 09:41:53;;;;;;;2.10;1.20;;;13.30;99.90;;;;;;5051549;28;20476;-44
2023/04/29 09:44:21;;;;;;;1.17;0.95;;;13.40;99.90;;;;;;5051222;28;20032;-42
2023/04/29 09:46:56;;;;;;;1.45;0.82;;;13.30;99.90;;;;;;5051272;28;20025;-44
2023/04/29 09:49:26;;;;;;;1.13;0.90;;;13.30;99.90;;;;;;5051735;28;20411;-44
2023/04/29 09:51:53;;;;;;;1.55;1.00;;;13.40;99.90;;;;;;5051882;28;20017;-44
2023/04/29 09:54:21;;;;;;;0.73;0.73;;;13.30;99.90;;;;;;5051787;28;20052;-44
2023/04/29 09:56:48;;;;;;;1.05;0.80;;;13.30;99.90;;;;;;5050775;28;20032;-43
2023/04/29 09:59:15;;;;;;;1.98;1.15;;;13.40;99.90;;;;;;5051928;28;20040;-45
2023/04/29 10:01:41;;;;;;;2.15;1.00;;;13.40;99.90;;;;;;5051459;28;20082;-43
2023/04/29 10:04:10;;;;;;;1.00;0.85;;;13.40;99.90;;;;;;5051409;28;20131;-43
2023/04/29 10:06:38;;;;;;;1.23;0.98;;;13.40;99.90;;;;;;5050255;28;20067;-44
2023/04/29 10:09:06;;;;;;;1.30;1.00;;;13.40;99.90;;;;;;5050874;28;20104;-42
2023/04/29 10:11:32;;;;;;;2.85;0.90;;;13.40;99.90;;;;;;5050749;28;20053;-44
2023/04/29 10:13:59;;;;;;;1.23;0.90;;;13.40;99.90;;;;;;5051603;28;20036;-45
2023/04/29 10:16:30;;;;;;;1.50;0.98;;;13.40;99.90;;;;;;5051201;28;20025;-44
2023/04/29 10:18:59;;;;;;;1.88;0.80;;;13.40;99.90;;;;;;5051061;28;20028;-44
2023/04/29 10:21:30;;;;;;;1.40;0.90;;;13.40;99.90;;;;;;5050818;28;20510;-40
2023/04/29 10:23:57;;;;;;;1.63;0.90;;;13.40;99.90;;;;;;5050803;28;20033;-42
2023/04/29 10:26:29;;;;;;;1.30;0.90;;;13.40;99.90;;;;;;5050449;28;20506;-44
2023/04/29 10:28:55;;;;;;;1.35;1.10;;;13.40;99.90;;;;;;5050763;28;20021;-44
2023/04/29 10:31:24;;;;;;;1.17;0.95;;;13.40;99.90;;;;;;5051070;28;20021;-40
2023/04/29 10:33:54;;;;;;;1.70;1.13;;;13.40;99.90;;;;;;5051431;28;20506;-40
2023/04/29 10:36:20;;;;;;;1.00;0.80;;;13.40;99.90;;;;;;5050015;28;20041;-43
2023/04/29 10:38:51;;;;;;;2.10;1.20;;;13.40;99.90;;;;;;5050791;28;20115;-44
2023/04/29 10:41:24;;;;;;;2.10;1.08;;;13.40;99.90;;;;;;5050921;28;20033;-43
2023/04/29 10:43:54;;;;;;;0.85;0.80;;;13.40;99.90;;;;;;5052848;28;20438;-40
2023/04/29 10:46:25;;;;;;;2.67;0.77;;;13.40;99.90;;;;;;5053985;28;20044;-45
2023/04/29 10:49:05;;;;;;;2.30;1.02;;;13.40;99.90;;;;;;5054535;28;20028;-42
2023/04/29 10:51:40;;;;;;;1.33;1.10;;;13.40;99.90;;;;;;5054502;28;20028;-41
2023/04/29 10:54:15;;;;;;;1.55;0.98;;;13.50;99.90;;;;;;5054600;28;20028;-45
2023/04/29 10:56:49;;;;;;;1.73;1.00;;;13.50;99.90;;;;;;5054335;28;20021;-46
2023/04/29 10:59:35;;;;;;;2.05;1.00;;;13.40;99.90;;;;;;5054370;28;20020;-46
2023/04/29 11:02:01;;;;;;;1.30;0.88;;;13.50;99.90;;;;;;5050556;28;20517;-46
2023/04/29 11:04:27;;;;;;;2.10;1.25;;;13.50;99.90;;;;;;5054161;28;20041;-45
2023/04/29 11:06:54;;;;;;;2.63;1.10;;;13.50;99.90;;;;;;5053730;28;20029;-46
2023/04/29 11:09:24;;;;;;;1.23;1.00;;;13.50;99.90;;;;;;5054288;28;20024;-45
2023/04/29 11:12:05;;;;;;;1.35;1.00;;;13.50;99.90;;;;;;5054065;28;20068;-46
2023/04/29 11:14:35;;;;;;;3.05;1.42;;;13.50;99.90;;;;;;5054161;28;20391;-46
2023/04/29 11:17:22;;;;;;;2.55;1.10;;;13.50;99.90;;;;;;5053577;28;20413;-45
2023/04/29 11:19:51;;;;;;;1.77;1.10;;;13.50;99.90;;;;;;5053806;28;20065;-46
2023/04/29 11:22:17;;;;;;;2.58;1.30;;;13.50;99.90;;;;;;5053926;28;20116;-46
2023/04/29 11:25:10;;;;;;;1.75;1.30;;;13.50;99.90;;;;;;5054061;28;20057;-44
2023/04/29 11:27:37;;;;;;;3.85;1.48;;;13.50;99.90;;;;;;5052790;28;20029;-46
2023/04/29 11:30:05;;;;;;;2.67;1.35;;;13.50;99.90;;;;;;5053877;28;20444;-45
2023/04/29 11:32:36;;;;;;;1.75;1.17;;;13.50;99.90;;;;;;5052458;28;20048;-45
2023/04/29 11:35:10;;;;;;;2.15;1.52;;;13.50;99.90;;;;;;5053767;28;20071;-46
2023/04/29 11:37:37;;;;;;;3.95;1.38;;;13.50;99.90;;;;;;5053121;28;20017;-44
2023/04/29 11:40:04;;;;;;;1.77;1.08;;;13.50;99.90;;;;;;5053645;28;20060;-44
2023/04/29 11:42:29;;;;;;;2.53;1.40;;;13.50;99.90;;;;;;5052791;28;20028;-43
2023/04/29 11:44:59;;;;;;;1.40;1.10;;;13.50;99.90;;;;;;5053411;28;20037;-45
2023/04/29 11:47:29;;;;;;;1.40;1.17;;;13.50;99.90;;;;;;5053215;28;20059;-44
2023/04/29 11:50:03;;;;;;;1.38;1.23;;;13.50;99.90;;;;;;5053624;28;20021;-44
2023/04/29 11:52:29;;;;;;;2.20;1.25;;;13.50;99.90;;;;;;5053487;28;20025;-44
2023/04/29 11:54:58;;;;;;;2.50;1.05;;;13.50;99.90;;;;;;5052466;28;20024;-44
2023/04/29 11:57:24;;;;;;;2.38;1.27;;;13.50;99.90;;;;;;5053024;28;20013;-45
2023/04/29 11:59:50;;;;;;;1.95;1.40;;;13.50;99.90;;;;;;5053518;28;20032;-44
2023/04/29 12:02:16;;;;;;;1.33;1.23;;;13.50;99.90;;;;;;5053292;28;20036;-44
2023/04/29 12:04:45;;;;;;;2.38;1.13;;;13.50;99.90;;;;;;5053211;28;20036;-44
2023/04/29 12:07:15;;;;;;;2.55;1.20;;;13.50;99.90;;;;;;5052506;28;20079;-43
2023/04/29 12:09:42;;;;;;;2.25;1.35;;;13.50;99.90;;;;;;5054332;28;20052;-44
2023/04/29 12:12:08;;;;;;;1.85;1.35;;;13.60;99.90;;;;;;5053223;28;20037;-44
2023/04/29 12:14:34;;;;;;;2.22;1.15;;;13.60;99.90;;;;;;5053141;28;20025;-46
2023/04/29 12:17:00;;;;;;;2.65;1.30;;;13.60;99.90;;;;;;5052522;28;20055;-40
2023/04/29 12:19:26;;;;;;;1.73;1.30;;;13.60;99.90;;;;;;5053028;28;20167;-44
2023/04/29 12:21:52;;;;;;;1.90;1.30;;;13.60;99.90;;;;;;5052882;28;20032;-44
2023/04/29 12:24:20;;;;;;;1.98;1.40;;;13.60;99.90;;;;;;5052851;28;20539;-43
2023/04/29 12:26:45;;;;;;;2.08;1.30;;;13.60;99.90;;;;;;5052144;28;20021;-44
2023/04/29 12:29:12;;;;;;;2.42;1.42;;;13.60;99.90;;;;;;5052567;28;20029;-45
2023/04/29 12:31:38;;;;;;;1.98;1.25;;;13.60;99.90;;;;;;5052786;28;20021;-44
2023/04/29 12:34:04;;;;;;;1.65;1.30;;;13.60;99.90;;;;;;5052530;28;20151;-44
2023/04/29 12:36:31;;;;;;;1.85;1.15;;;13.70;99.90;;;;;;5051857;28;20028;-41
2023/04/29 12:38:58;;;;;;;1.50;1.30;;;13.60;99.90;;;;;;5052521;28;20561;-44
2023/04/29 12:41:40;;;;;;;1.75;1.10;;;13.60;99.90;;;;;;5052473;28;20091;-42
2023/04/29 12:44:06;;;;;;;1.45;1.15;;;13.60;99.90;;;;;;5052586;28;20043;-45
2023/04/29 12:46:40;;;;;;;1.65;1.40;;;13.60;99.90;;;;;;5051718;28;20021;-44
2023/04/29 12:49:06;;;;;;;1.92;1.10;;;13.70;99.90;;;;;;5052266;28;20028;-43